createdAt,value
2023-03-26T00:02:10.988Z,0.90
2023-03-26T00:04:37.456Z,1.23
2023-03-26T00:07:03.935Z,1.23
2023-03-26T00:09:30.410Z,1.58
2023-03-26T00:11:57.460Z,1.30
2023-03-26T00:14:23.922Z,1.42
2023-03-26T00:16:50.460Z,1.27
2023-03-26T00:19:17.055Z,1.37
2023-03-26T00:21:43.553Z,1.35
2023-03-26T00:24:10.044Z,1.55
2023-03-26T00:26:37.801Z,1.15
2023-03-26T00:29:04.417Z,1.30
2023-03-26T00:31:30.998Z,1.40
2023-03-26T00:33:58.000Z,1.10
2023-03-26T00:36:25.946Z,1.77
2023-03-26T00:38:53.157Z,1.30
2023-03-26T00:41:23.287Z,1.35
2023-03-26T00:43:49.825Z,1.70
2023-03-26T00:46:17.703Z,1.33
2023-03-26T00:48:45.600Z,1.30
2023-03-26T00:51:12.545Z,1.33
2023-03-26T00:53:39.192Z,1.20
2023-03-26T00:56:05.608Z,1.00
2023-03-26T00:58:32.094Z,1.37
2023-03-26T01:00:58.534Z,1.00
2023-03-26T01:03:31.096Z,1.00
2023-03-26T01:05:57.548Z,1.00
2023-03-26T01:08:24.159Z,1.00
2023-03-26T01:10:53.692Z,1.62
2023-03-26T01:13:20.113Z,1.10
2023-03-26T01:15:51.286Z,1.50
2023-03-26T01:18:17.822Z,1.20
2023-03-26T01:20:49.828Z,1.10
2023-03-26T01:23:17.784Z,1.60
2023-03-26T01:25:44.209Z,1.02
2023-03-26T01:28:12.777Z,1.30
2023-03-26T01:30:41.781Z,0.93
2023-03-26T01:33:14.101Z,1.20
2023-03-26T01:35:40.740Z,1.25
2023-03-26T01:38:10.989Z,1.05
2023-03-26T01:40:43.870Z,1.17
2023-03-26T01:43:10.550Z,0.80
2023-03-26T01:45:37.029Z,1.73
2023-03-26T01:48:03.545Z,1.40
2023-03-26T01:50:30.038Z,1.00
2023-03-26T01:52:56.451Z,1.00
2023-03-26T01:55:22.900Z,0.88
2023-03-26T01:57:49.318Z,0.88
2023-03-26T02:00:15.791Z,1.00
2023-03-26T02:02:43.054Z,0.90
2023-03-26T02:05:09.767Z,1.00
2023-03-26T02:07:38.156Z,1.15
2023-03-26T02:10:05.748Z,1.20
2023-03-26T02:12:32.152Z,0.90
2023-03-26T02:14:58.568Z,1.12
2023-03-26T02:17:25.033Z,1.20
2023-03-26T02:19:51.651Z,1.12
2023-03-26T02:22:18.058Z,0.57
2023-03-26T02:24:44.519Z,1.33
2023-03-26T02:27:12.450Z,0.80
2023-03-26T02:29:39.990Z,1.42
2023-03-26T02:32:06.461Z,0.90
2023-03-26T02:34:32.946Z,0.90
2023-03-26T02:36:59.406Z,1.05
2023-03-26T02:39:26.464Z,1.55
2023-03-26T02:41:52.915Z,1.10
2023-03-26T02:44:19.340Z,1.00
2023-03-26T02:46:45.840Z,1.10
2023-03-26T02:49:12.272Z,0.90
2023-03-26T02:51:38.692Z,0.90
2023-03-26T02:54:05.105Z,1.08
2023-03-26T02:56:31.731Z,0.98
2023-03-26T02:58:58.184Z,1.20
2023-03-26T03:01:24.638Z,1.20
2023-03-26T03:03:51.163Z,1.30
2023-03-26T03:06:19.004Z,1.15
2023-03-26T03:08:46.321Z,1.10
2023-03-26T03:11:12.791Z,1.00
2023-03-26T03:13:41.361Z,1.10
2023-03-26T03:16:08.041Z,1.02
2023-03-26T03:18:34.443Z,1.10
2023-03-26T03:21:00.960Z,1.23
2023-03-26T03:23:27.382Z,0.80
2023-03-26T03:25:53.971Z,1.10
2023-03-26T03:28:20.695Z,1.00
2023-03-26T03:30:47.336Z,0.82
2023-03-26T03:33:13.858Z,0.90
2023-03-26T03:35:41.760Z,1.15
2023-03-26T03:38:08.228Z,1.00
2023-03-26T03:40:34.636Z,1.42
2023-03-26T03:43:01.116Z,1.30
2023-03-26T03:45:27.604Z,1.20
2023-03-26T03:47:54.301Z,1.08
2023-03-26T03:50:20.794Z,1.08
2023-03-26T03:52:47.230Z,1.00
2023-03-26T03:55:14.282Z,1.17
2023-03-26T03:57:40.810Z,1.30
2023-03-26T04:00:09.255Z,1.25
2023-03-26T04:02:35.839Z,1.00
2023-03-26T04:05:02.325Z,1.25
2023-03-26T04:07:30.804Z,1.17
2023-03-26T04:09:57.377Z,1.17
2023-03-26T04:12:23.825Z,1.40
2023-03-26T04:14:50.427Z,1.10
2023-03-26T04:17:16.833Z,1.60
2023-03-26T04:19:44.374Z,1.67
2023-03-26T04:22:12.180Z,1.23
2023-03-26T04:24:40.326Z,1.10
2023-03-26T04:27:07.150Z,1.33
2023-03-26T04:29:33.560Z,0.95
2023-03-26T04:32:06.749Z,1.05
2023-03-26T04:34:33.223Z,1.10
2023-03-26T04:36:59.669Z,1.30
2023-03-26T04:39:29.321Z,1.30
2023-03-26T04:41:55.825Z,1.33
2023-03-26T04:44:25.458Z,1.25
2023-03-26T04:46:53.144Z,1.83
2023-03-26T04:49:19.623Z,1.20
2023-03-26T04:51:47.160Z,1.20
2023-03-26T04:54:13.683Z,1.50
2023-03-26T04:56:40.222Z,1.70
2023-03-26T04:59:08.252Z,1.30
2023-03-26T05:01:38.078Z,1.80
2023-03-26T05:04:04.584Z,1.25
2023-03-26T05:06:34.590Z,1.17
2023-03-26T05:09:01.905Z,1.50
2023-03-26T05:11:28.346Z,1.10
2023-03-26T05:13:54.757Z,1.15
2023-03-26T05:16:22.605Z,1.23
2023-03-26T05:18:49.082Z,1.10
2023-03-26T05:21:15.662Z,1.20
2023-03-26T05:23:42.088Z,1.10
2023-03-26T05:26:08.547Z,1.30
2023-03-26T05:28:35.038Z,1.60
2023-03-26T05:31:01.475Z,1.23
2023-03-26T05:33:27.966Z,1.30
2023-03-26T05:35:54.497Z,1.48
2023-03-26T05:38:21.807Z,1.30
2023-03-26T05:40:48.223Z,1.25
2023-03-26T05:43:14.635Z,1.08
2023-03-26T05:45:41.141Z,1.62
2023-03-26T05:48:07.613Z,1.62
2023-03-26T05:50:34.059Z,1.12
2023-03-26T05:53:00.499Z,1.20
2023-03-26T05:55:27.929Z,1.42
2023-03-26T05:57:54.387Z,1.52
2023-03-26T06:00:20.935Z,1.50
2023-03-26T06:02:48.236Z,1.10
2023-03-26T06:05:14.769Z,1.23
2023-03-26T06:07:41.475Z,1.48
2023-03-26T06:10:07.912Z,1.40
2023-03-26T06:12:34.348Z,1.02
2023-03-26T06:15:00.876Z,1.33
2023-03-26T06:17:27.367Z,1.25
2023-03-26T06:19:53.915Z,1.50
2023-03-26T06:22:20.553Z,1.73
2023-03-26T06:24:47.032Z,1.15
2023-03-26T06:27:13.469Z,1.40
2023-03-26T06:29:39.909Z,1.58
2023-03-26T06:32:18.421Z,1.45
2023-03-26T06:34:46.392Z,1.40
2023-03-26T06:37:12.834Z,1.48
2023-03-26T06:39:39.291Z,1.65
2023-03-26T06:42:05.716Z,1.27
2023-03-26T06:44:32.146Z,1.30
2023-03-26T06:46:58.653Z,1.40
2023-03-26T06:49:25.134Z,1.20
2023-03-26T06:51:51.629Z,1.35
2023-03-26T06:54:18.046Z,1.55
2023-03-26T06:56:45.281Z,1.30
2023-03-26T06:59:11.802Z,1.42
2023-03-26T07:01:38.374Z,1.33
2023-03-26T07:04:04.839Z,1.25
2023-03-26T07:06:31.359Z,1.60
2023-03-26T07:08:57.781Z,1.70
2023-03-26T07:11:25.775Z,1.45
2023-03-26T07:13:52.251Z,1.50
2023-03-26T07:16:18.698Z,1.23
2023-03-26T07:18:45.151Z,1.33
2023-03-26T07:21:11.571Z,1.40
2023-03-26T07:23:38.021Z,1.37
2023-03-26T07:26:04.523Z,1.40
2023-03-26T07:28:30.974Z,1.33
2023-03-26T07:30:57.565Z,1.40
2023-03-26T07:33:24.088Z,1.50
2023-03-26T07:35:50.513Z,1.58
2023-03-26T07:38:17.006Z,1.90
2023-03-26T07:40:43.740Z,1.45
2023-03-26T07:43:10.246Z,1.30
2023-03-26T07:45:38.289Z,1.85
2023-03-26T07:48:04.812Z,1.65
2023-03-26T07:50:31.311Z,1.85
2023-03-26T07:52:57.748Z,1.35
2023-03-26T07:55:24.814Z,1.25
2023-03-26T07:57:51.259Z,1.23
2023-03-26T08:00:17.996Z,1.20
2023-03-26T08:02:44.450Z,1.30
2023-03-26T08:05:18.888Z,1.33
2023-03-26T08:07:45.483Z,1.30
2023-03-26T08:10:12.028Z,1.75
2023-03-26T08:12:38.507Z,1.40
2023-03-26T08:15:05.358Z,1.40
2023-03-26T08:17:31.851Z,1.37
2023-03-26T08:19:58.614Z,1.80
2023-03-26T08:22:28.593Z,1.50
2023-03-26T08:24:55.174Z,1.80
2023-03-26T08:27:21.676Z,1.50
2023-03-26T08:29:50.136Z,1.40
2023-03-26T08:32:16.622Z,1.70
2023-03-26T08:34:43.056Z,1.87
2023-03-26T08:37:10.074Z,1.73
2023-03-26T08:39:37.914Z,2.05
2023-03-26T08:42:04.330Z,1.37
2023-03-26T08:44:30.909Z,1.70
2023-03-26T08:46:57.334Z,2.10
2023-03-26T08:49:25.850Z,1.77
2023-03-26T08:51:53.163Z,1.40
2023-03-26T08:54:19.598Z,1.50
2023-03-26T08:56:46.169Z,1.50
2023-03-26T08:59:12.615Z,1.42
2023-03-26T09:01:39.148Z,1.37
2023-03-26T09:04:05.750Z,1.85
2023-03-26T09:06:32.504Z,1.75
2023-03-26T09:08:59.364Z,1.60
2023-03-26T09:11:25.788Z,1.35
2023-03-26T09:13:52.273Z,1.52
2023-03-26T09:16:18.756Z,1.70
2023-03-26T09:18:45.203Z,2.17
2023-03-26T09:21:11.632Z,1.70
2023-03-26T09:23:38.076Z,1.55
2023-03-26T09:26:04.507Z,1.40
2023-03-26T09:28:31.048Z,1.75
2023-03-26T09:31:01.179Z,1.60
2023-03-26T09:33:28.190Z,2.05
2023-03-26T09:35:54.750Z,1.50
2023-03-26T09:38:21.238Z,1.60
2023-03-26T09:40:47.755Z,1.60
2023-03-26T09:43:14.188Z,1.60
2023-03-26T09:45:40.677Z,1.65
2023-03-26T09:48:07.731Z,2.00
2023-03-26T09:50:34.221Z,1.75
2023-03-26T09:53:00.661Z,1.50
2023-03-26T09:55:27.099Z,1.73
2023-03-26T09:57:58.415Z,1.60
2023-03-26T10:00:25.618Z,1.85
2023-03-26T10:02:52.142Z,1.77
2023-03-26T10:05:18.596Z,2.40
2023-03-26T10:07:45.092Z,1.80
2023-03-26T10:10:11.542Z,1.73
2023-03-26T10:12:38.449Z,1.42
2023-03-26T10:15:04.970Z,1.65
2023-03-26T10:17:32.185Z,1.65
2023-03-26T10:19:58.652Z,1.25
2023-03-26T10:22:25.086Z,1.30
2023-03-26T10:24:51.526Z,1.37
2023-03-26T10:27:17.976Z,1.35
2023-03-26T10:29:44.387Z,1.25
2023-03-26T10:32:10.819Z,1.50
2023-03-26T10:34:37.248Z,1.48
2023-03-26T10:37:03.658Z,1.10
2023-03-26T10:39:36.772Z,1.75
2023-03-26T10:42:05.870Z,1.83
2023-03-26T10:44:32.309Z,1.95
2023-03-26T10:46:58.733Z,1.42
2023-03-26T10:49:25.155Z,1.83
2023-03-26T10:51:53.570Z,1.73
2023-03-26T10:54:20.017Z,1.77
2023-03-26T10:56:46.604Z,1.65
2023-03-26T10:59:13.048Z,1.52
2023-03-26T11:01:39.570Z,1.52
2023-03-26T11:04:06.040Z,1.17
2023-03-26T11:06:32.519Z,1.33
2023-03-26T11:08:59.001Z,1.40
2023-03-26T11:11:25.434Z,1.48
2023-03-26T11:13:51.849Z,1.70
2023-03-26T11:16:18.365Z,1.33
2023-03-26T11:18:44.942Z,1.70
2023-03-26T11:21:18.973Z,1.62
2023-03-26T11:23:46.437Z,1.62
2023-03-26T11:26:12.862Z,1.42
2023-03-26T11:28:39.324Z,1.75
2023-03-26T11:31:05.803Z,1.30
2023-03-26T11:33:32.626Z,1.05
2023-03-26T11:35:59.450Z,1.50
2023-03-26T11:38:25.917Z,1.40
2023-03-26T11:40:53.080Z,1.30
2023-03-26T11:43:19.840Z,1.70
2023-03-26T11:45:46.279Z,1.27
2023-03-26T11:48:12.959Z,1.33
2023-03-26T11:50:41.243Z,1.37
2023-03-26T11:53:07.651Z,1.30
2023-03-26T11:55:34.804Z,1.55
2023-03-26T11:58:01.224Z,1.10
2023-03-26T12:00:27.803Z,1.20
2023-03-26T12:02:54.284Z,1.12
2023-03-26T12:05:20.863Z,1.33
2023-03-26T12:07:47.304Z,1.27
2023-03-26T12:10:18.108Z,1.20
2023-03-26T12:12:45.778Z,1.33
2023-03-26T12:15:12.182Z,1.33
2023-03-26T12:17:39.974Z,1.30
2023-03-26T12:20:07.015Z,1.60
2023-03-26T12:22:33.476Z,2.30
2023-03-26T12:24:59.891Z,1.37
2023-03-26T12:27:28.557Z,1.10
2023-03-26T12:29:57.120Z,1.50
2023-03-26T12:32:35.499Z,1.65
2023-03-26T12:35:09.539Z,1.30
2023-03-26T12:37:36.016Z,1.27
2023-03-26T12:40:06.537Z,1.25
2023-03-26T12:44:49.934Z,1.42
2023-03-26T12:45:21.868Z,1.10
2023-03-26T12:48:01.246Z,1.30
2023-03-26T12:50:34.407Z,1.48
2023-03-26T12:53:02.765Z,1.40
2023-03-26T12:55:30.243Z,1.37
2023-03-26T12:57:56.741Z,1.35
2023-03-26T13:00:23.176Z,1.30
2023-03-26T13:02:49.881Z,1.45
2023-03-26T13:05:16.334Z,1.12
2023-03-26T13:07:42.842Z,1.75
2023-03-26T13:10:09.924Z,1.40
2023-03-26T13:12:36.378Z,1.40
2023-03-26T13:15:02.886Z,1.35
2023-03-26T13:17:29.344Z,1.17
2023-03-26T13:19:55.820Z,1.00
2023-03-26T13:22:22.488Z,1.65
2023-03-26T13:24:48.923Z,1.00
2023-03-26T13:27:15.901Z,1.30
2023-03-26T13:29:42.343Z,1.65
2023-03-26T13:32:08.832Z,1.30
2023-03-26T13:34:35.253Z,1.70
2023-03-26T13:37:01.828Z,1.48
2023-03-26T13:39:28.383Z,1.50
2023-03-26T13:41:54.824Z,1.33
2023-03-26T13:44:23.275Z,1.67
2023-03-26T13:46:49.701Z,1.58
2023-03-26T13:49:16.719Z,1.48
2023-03-26T13:51:43.206Z,1.50
2023-03-26T13:54:09.647Z,1.58
2023-03-26T13:56:36.132Z,1.25
2023-03-26T13:59:02.584Z,1.60
2023-03-26T14:01:34.380Z,1.50
2023-03-26T14:04:00.905Z,1.25
2023-03-26T14:06:27.349Z,1.27
2023-03-26T14:08:53.786Z,1.00
2023-03-26T14:11:20.270Z,1.05
2023-03-26T14:13:46.936Z,1.30
2023-03-26T14:16:13.421Z,1.10
2023-03-26T14:18:39.858Z,1.15
2023-03-26T14:21:07.296Z,1.50
2023-03-26T14:23:33.694Z,1.37
2023-03-26T14:26:00.108Z,1.02
2023-03-26T14:28:26.700Z,1.00
2023-03-26T14:30:54.710Z,0.98
2023-03-26T14:33:27.580Z,1.30
2023-03-26T14:35:54.341Z,1.42
2023-03-26T14:38:20.801Z,1.10
2023-03-26T14:40:47.263Z,1.30
2023-03-26T14:43:13.703Z,1.27
2023-03-26T14:45:40.148Z,1.50
2023-03-26T14:48:09.692Z,1.60
2023-03-26T14:50:36.374Z,1.48
2023-03-26T14:53:04.556Z,1.45
2023-03-26T14:55:30.987Z,1.70
2023-03-26T14:57:57.483Z,1.52
2023-03-26T15:00:23.990Z,1.35
2023-03-26T15:02:52.160Z,1.40
2023-03-26T15:05:20.590Z,2.00
2023-03-26T15:07:47.019Z,1.80
2023-03-26T15:10:13.441Z,1.45
2023-03-26T15:12:39.900Z,1.65
2023-03-26T15:15:06.519Z,1.48
2023-03-26T15:17:32.999Z,1.20
2023-03-26T15:19:59.522Z,1.37
2023-03-26T15:22:26.262Z,1.48
2023-03-26T15:24:52.740Z,1.70
2023-03-26T15:27:21.061Z,1.12
2023-03-26T15:29:48.356Z,1.10
2023-03-26T15:32:14.811Z,1.52
2023-03-26T15:34:42.537Z,1.40
2023-03-26T15:37:12.222Z,1.02
2023-03-26T15:39:58.637Z,0.90
2023-03-26T15:42:26.578Z,1.00
2023-03-26T15:44:54.134Z,1.10
2023-03-26T15:47:20.950Z,1.02
2023-03-26T15:49:48.221Z,1.25
2023-03-26T15:52:15.470Z,1.30
2023-03-26T15:54:42.125Z,1.10
2023-03-26T15:57:09.109Z,1.02
2023-03-26T15:59:37.129Z,1.12
2023-03-26T16:02:05.122Z,1.02
2023-03-26T16:04:32.731Z,1.10
2023-03-26T16:06:59.193Z,1.02
2023-03-26T16:09:25.640Z,1.37
2023-03-26T16:11:52.091Z,1.05
2023-03-26T16:14:23.576Z,1.30
2023-03-26T16:16:50.351Z,1.30
2023-03-26T16:19:17.100Z,1.05
2023-03-26T16:21:43.524Z,1.35
2023-03-26T16:24:12.282Z,1.20
2023-03-26T16:26:38.743Z,1.33
2023-03-26T16:29:05.504Z,1.20
2023-03-26T16:31:39.443Z,1.10
2023-03-26T16:34:08.070Z,1.00
2023-03-26T16:36:34.766Z,1.30
2023-03-26T16:39:02.817Z,1.40
2023-03-26T16:41:29.263Z,1.40
2023-03-26T16:43:56.133Z,1.30
2023-03-26T16:46:22.574Z,1.35
2023-03-26T16:48:49.058Z,1.50
2023-03-26T16:51:17.329Z,1.50
2023-03-26T16:53:44.356Z,1.33
2023-03-26T16:56:10.783Z,1.37
2023-03-26T16:58:37.210Z,1.30
2023-03-26T17:01:03.632Z,1.50
2023-03-26T17:03:32.056Z,1.33
2023-03-26T17:05:58.601Z,1.70
2023-03-26T17:08:36.288Z,1.50
2023-03-26T17:11:03.749Z,1.33
2023-03-26T17:13:30.155Z,1.70
2023-03-26T17:15:56.627Z,1.90
2023-03-26T17:18:23.093Z,1.62
2023-03-26T17:20:49.604Z,1.75
2023-03-26T17:23:16.213Z,1.73
2023-03-26T17:25:42.659Z,1.90
2023-03-26T17:28:09.078Z,1.95
2023-03-26T17:30:35.515Z,2.05
2023-03-26T17:33:02.007Z,1.75
2023-03-26T17:35:28.533Z,1.77
2023-03-26T17:37:54.982Z,1.83
2023-03-26T17:40:21.636Z,1.70
2023-03-26T17:42:48.035Z,1.87
2023-03-26T17:45:15.627Z,2.03
2023-03-26T17:47:42.081Z,1.80
2023-03-26T17:52:40.960Z,3.70
2023-03-26T17:55:07.396Z,4.55
2023-03-26T17:57:33.920Z,4.10
2023-03-26T18:00:00.343Z,2.58
2023-03-26T18:02:27.918Z,1.95
2023-03-26T18:04:54.428Z,2.40
2023-03-26T18:07:21.009Z,2.37
2023-03-26T18:09:48.338Z,2.92
2023-03-26T18:12:14.755Z,2.58
2023-03-26T18:14:41.262Z,2.40
2023-03-26T18:17:07.743Z,2.78
2023-03-26T18:19:34.153Z,2.60
2023-03-26T18:22:00.630Z,2.65
2023-03-26T18:24:28.079Z,3.80
2023-03-26T18:26:54.650Z,3.12
2023-03-26T18:29:21.670Z,3.97
2023-03-26T18:31:48.146Z,4.40
2023-03-26T18:34:14.661Z,3.92
2023-03-26T18:36:41.723Z,4.22
2023-03-26T18:39:09.580Z,4.20
2023-03-26T18:41:39.387Z,3.55
2023-03-26T18:44:06.068Z,3.42
2023-03-26T18:46:32.561Z,2.37
2023-03-26T18:49:00.150Z,2.60
2023-03-26T18:51:26.564Z,2.50
2023-03-26T18:53:52.984Z,2.87
2023-03-26T18:56:19.609Z,2.40
2023-03-26T18:58:50.076Z,2.70
2023-03-26T19:01:25.037Z,2.97
2023-03-26T19:03:53.142Z,3.17
2023-03-26T19:06:21.129Z,2.28
2023-03-26T19:08:47.671Z,2.10
2023-03-26T19:11:14.135Z,2.87
2023-03-26T19:13:43.675Z,2.85
2023-03-26T19:16:10.094Z,2.28
2023-03-26T19:18:36.525Z,2.90
2023-03-26T19:21:03.612Z,2.22
2023-03-26T19:23:31.920Z,2.40
2023-03-26T19:25:59.951Z,2.25
2023-03-26T19:28:26.445Z,2.20
2023-03-26T19:30:52.946Z,2.92
2023-03-26T19:33:19.524Z,2.67
2023-03-26T19:35:46.381Z,2.70
2023-03-26T19:38:12.819Z,2.33
2023-03-26T19:40:39.281Z,3.30
2023-03-26T19:43:05.721Z,4.05
2023-03-26T19:45:32.143Z,3.67
2023-03-26T19:48:12.208Z,4.25
2023-03-26T19:50:42.267Z,4.03
2023-03-26T19:53:16.387Z,4.00
2023-03-26T19:55:44.048Z,4.32
2023-03-26T19:58:10.532Z,4.97
2023-03-26T20:00:37.024Z,4.72
2023-03-26T20:03:03.799Z,4.82
2023-03-26T20:05:30.438Z,5.10
2023-03-26T20:07:57.309Z,4.12
2023-03-26T20:10:23.760Z,3.10
2023-03-26T20:12:50.319Z,3.10
2023-03-26T20:15:19.211Z,2.00
2023-03-26T20:17:55.858Z,2.62
2023-03-26T20:20:24.924Z,2.42
2023-03-26T20:22:51.336Z,2.40
2023-03-26T20:27:45.246Z,1.58
2023-03-26T20:30:12.099Z,1.50
2023-03-26T20:32:40.424Z,1.50
2023-03-26T20:35:06.877Z,1.60
2023-03-26T20:37:33.346Z,1.50
2023-03-26T20:39:59.823Z,1.55
2023-03-26T20:42:26.310Z,1.45
2023-03-26T20:44:52.739Z,1.55
2023-03-26T21:01:50.131Z,1.75
2023-03-26T21:04:16.756Z,1.25
2023-03-26T21:06:43.262Z,1.30
2023-03-26T21:09:09.711Z,1.00
2023-03-26T21:11:36.208Z,1.20
2023-03-26T21:14:02.628Z,1.30
2023-03-26T21:16:29.119Z,1.70
2023-03-26T21:18:55.912Z,1.10
2023-03-26T21:21:22.357Z,1.05
2023-03-26T21:23:48.797Z,1.33
2023-03-26T21:26:17.512Z,1.08
2023-03-26T21:28:45.667Z,1.23
2023-03-26T21:31:12.555Z,1.35
2023-03-26T21:33:41.123Z,1.20
2023-03-26T21:36:07.792Z,1.10
2023-03-26T21:38:34.652Z,1.08
2023-03-26T21:41:01.403Z,0.98
2023-03-26T21:43:27.985Z,1.10
2023-03-26T21:45:54.949Z,1.50
2023-03-26T21:48:21.709Z,1.30
2023-03-26T21:50:48.229Z,1.02
2023-03-26T21:53:17.788Z,1.10
2023-03-26T21:55:44.403Z,0.90
2023-03-26T21:58:12.468Z,1.10
2023-03-26T22:00:43.609Z,1.00
2023-03-26T22:03:22.195Z,0.93
2023-03-26T22:05:48.645Z,1.00
2023-03-26T22:08:15.118Z,1.08
2023-03-26T22:10:42.913Z,7.53
2023-03-26T22:13:09.355Z,5.25
2023-03-26T22:15:35.979Z,3.17
2023-03-26T22:18:02.482Z,1.73
2023-03-26T22:20:29.132Z,1.52
2023-03-26T22:22:56.038Z,1.20
2023-03-26T22:25:22.446Z,0.85
2023-03-26T22:27:48.878Z,0.77
2023-03-26T22:30:15.718Z,0.98
2023-03-26T22:32:42.823Z,0.82
2023-03-26T22:35:09.305Z,0.70
2023-03-26T22:37:37.364Z,0.60
2023-03-26T22:40:05.628Z,0.80
2023-03-26T22:42:32.245Z,0.90
2023-03-26T22:44:58.646Z,0.90
2023-03-26T22:47:25.142Z,0.70
2023-03-26T22:49:51.783Z,1.00
2023-03-26T22:52:18.370Z,1.02
2023-03-26T22:54:44.831Z,0.98
2023-03-26T22:57:11.327Z,0.90
2023-03-26T22:59:37.777Z,0.95
2023-03-26T23:02:04.419Z,1.10
2023-03-26T23:04:32.176Z,1.00
2023-03-26T23:06:58.968Z,0.90
2023-03-26T23:09:25.406Z,1.02
2023-03-26T23:11:51.981Z,1.20
2023-03-26T23:14:19.249Z,1.10
2023-03-26T23:16:48.736Z,0.95
2023-03-26T23:19:15.170Z,0.90
2023-03-26T23:21:41.608Z,1.00
2023-03-26T23:24:08.375Z,1.10
2023-03-26T23:26:43.945Z,1.10
2023-03-26T23:29:16.546Z,1.02
2023-03-26T23:31:43.052Z,1.00
2023-03-26T23:34:09.625Z,1.10
2023-03-26T23:36:36.547Z,1.17
2023-03-26T23:39:02.957Z,0.90
2023-03-26T23:41:29.436Z,1.00
2023-03-26T23:43:56.082Z,0.93
2023-03-26T23:46:23.705Z,0.90
2023-03-26T23:48:51.317Z,1.02
2023-03-26T23:51:18.562Z,1.23
2023-03-26T23:53:45.013Z,0.95
2023-03-26T23:56:13.805Z,1.00
2023-03-26T23:58:40.421Z,0.93
